Main page
METAR-TAF:

METAR-TAF

Airports :

Shawbury, England

RAF Shawbury

latitude: 52-48N, longitude: 002-40W, elevation: 76 m

Current weather observation

The report was made 58 minutes ago, at 01:50 UTC
Wind 10 kt from the South
Temperature 16°C
Humidity 72%
Pressure 1009 hPa
Visibility 10 km or more

METAR: EGOS 220150Z AUTO 17010KT 9999 FEW060/// BKN210/// 16/11 Q1009

Time: 03:48 (02:48 UTC)


TAF: missing

Weather observations and forecasts of more than 4000 airports (METAR and TAF reports).

The available stations are represented by yellow and red dots on the map.

Hover mouse over dot to see the name of the station.

Then click to see weather observations and forecasts.

To change the map : click on the green buttons with a black cross to zoom in, on the green button with a dash to zoom out, or on the green arrows for adjacent maps.


METAR-TAF: